createdAt,value
2023-03-13T00:02:22.084Z,100069.47
2023-03-13T00:04:48.479Z,100072.94
2023-03-13T00:07:16.036Z,100062.16
2023-03-13T00:09:42.455Z,100056.84
2023-03-13T00:12:09.181Z,100052.38
2023-03-13T00:14:35.554Z,100053.50
2023-03-13T00:17:03.062Z,100041.81
2023-03-13T00:19:29.610Z,100039.38
2023-03-13T00:21:56.073Z,100035.88
2023-03-13T00:24:22.432Z,100031.06
2023-03-13T00:26:48.883Z,100033.16
2023-03-13T00:29:15.557Z,100025.06
2023-03-13T00:31:42.316Z,100022.41
2023-03-13T00:34:11.341Z,100015.34
2023-03-13T00:36:37.899Z,100010.78
2023-03-13T00:39:05.929Z,100015.91
2023-03-13T00:41:33.062Z,100002.53
2023-03-13T00:43:59.741Z,100007.38
2023-03-13T00:46:28.132Z,99998.16
2023-03-13T00:48:54.614Z,99998.91
2023-03-13T00:51:22.143Z,99990.66
2023-03-13T00:53:48.801Z,99995.16
2023-03-13T00:56:17.044Z,99979.19
2023-03-13T00:58:44.752Z,99975.63
2023-03-13T01:01:12.313Z,99982.75
2023-03-13T01:03:39.908Z,99981.50
2023-03-13T01:06:08.774Z,99977.09
2023-03-13T01:08:35.202Z,99969.19
2023-03-13T01:11:06.641Z,99963.56
2023-03-13T01:13:33.445Z,99960.78
2023-03-13T01:16:18.292Z,99954.34
2023-03-13T01:18:47.512Z,99939.25
2023-03-13T01:21:14.945Z,99935.56
2023-03-13T01:23:41.304Z,99925.63
2023-03-13T01:26:08.528Z,99916.56
2023-03-13T01:28:35.608Z,99907.00
2023-03-13T01:31:19.801Z,99907.31
2023-03-13T01:33:47.886Z,99897.66
2023-03-13T01:36:14.848Z,99894.63
2023-03-13T01:38:41.238Z,99878.28
2023-03-13T01:41:09.298Z,99879.03
2023-03-13T01:43:36.752Z,99876.66
2023-03-13T01:46:06.249Z,99865.63
2023-03-13T01:49:00.858Z,99854.34
2023-03-13T01:51:54.163Z,99847.53
2023-03-13T01:54:24.338Z,99843.03
2023-03-13T01:57:27.360Z,99834.19
2023-03-13T02:00:08.100Z,99827.00
2023-03-13T02:02:35.624Z,99824.59
2023-03-13T02:05:03.621Z,99804.75
2023-03-13T02:07:37.694Z,99804.31
2023-03-13T02:10:04.542Z,99795.78
2023-03-13T02:12:34.267Z,99794.72
2023-03-13T02:15:03.887Z,99787.72
2023-03-13T02:17:30.565Z,99780.13
2023-03-13T02:19:56.957Z,99781.28
2023-03-13T02:22:31.078Z,99780.88
2023-03-13T02:25:25.801Z,99766.50
2023-03-13T02:27:55.414Z,99758.63
2023-03-13T02:30:22.294Z,99746.81
2023-03-13T02:32:48.969Z,99746.59
2023-03-13T02:35:18.990Z,99733.38
2023-03-13T02:37:48.997Z,99718.41
2023-03-13T02:40:18.559Z,99719.44
2023-03-13T02:42:45.937Z,99711.38
2023-03-13T02:45:17.186Z,99705.31
2023-03-13T02:47:43.776Z,99694.34
2023-03-13T02:50:11.288Z,99696.06
2023-03-13T02:52:42.039Z,99687.22
2023-03-13T02:55:12.808Z,99680.28
2023-03-13T02:57:39.200Z,99676.56
2023-03-13T03:00:07.213Z,99674.84
2023-03-13T03:02:33.615Z,99665.53
2023-03-13T03:04:59.970Z,99655.69
2023-03-13T03:07:26.370Z,99649.72
2023-03-13T03:09:52.771Z,99643.75
2023-03-13T03:12:19.158Z,99637.47
2023-03-13T03:14:45.553Z,99633.97
2023-03-13T03:17:11.938Z,99625.69
2023-03-13T03:19:38.297Z,99626.72
2023-03-13T03:22:04.905Z,99610.34
2023-03-13T03:24:31.345Z,99610.00
2023-03-13T03:26:57.774Z,99611.59
2023-03-13T03:29:24.209Z,99609.78
2023-03-13T03:31:50.710Z,99602.53
2023-03-13T03:34:17.113Z,99593.44
2023-03-13T03:36:43.513Z,99592.94
2023-03-13T03:39:09.880Z,99594.34
2023-03-13T03:41:37.369Z,99571.25
2023-03-13T03:44:04.990Z,99560.72
2023-03-13T03:46:31.365Z,99564.19
2023-03-13T03:48:57.874Z,99551.47
2023-03-13T03:51:24.283Z,99543.25
2023-03-13T03:53:50.978Z,99540.94
2023-03-13T03:56:17.359Z,99521.38
2023-03-13T03:58:43.755Z,99520.25
2023-03-13T04:01:10.129Z,99509.94
2023-03-13T04:03:36.611Z,99517.06
2023-03-13T04:06:03.009Z,99499.44
2023-03-13T04:08:29.697Z,99500.81
2023-03-13T04:10:56.068Z,99506.69
2023-03-13T04:13:22.470Z,99496.03
2023-03-13T04:15:48.915Z,99491.91
2023-03-13T04:18:16.532Z,99484.00
2023-03-13T04:20:43.106Z,99476.25
2023-03-13T04:23:09.483Z,99461.72
2023-03-13T04:25:37.161Z,99465.16
2023-03-13T04:28:03.651Z,99452.09
2023-03-13T04:30:30.068Z,99447.53
2023-03-13T04:32:56.547Z,99439.38
2023-03-13T04:35:23.022Z,99435.41
2023-03-13T04:37:49.495Z,99420.00
2023-03-13T04:40:15.895Z,99409.94
2023-03-13T04:42:42.290Z,99408.00
2023-03-13T04:45:11.790Z,99409.78
2023-03-13T04:47:38.160Z,99396.31
2023-03-13T04:50:04.883Z,99401.94
2023-03-13T04:52:31.288Z,99406.97
2023-03-13T04:54:57.716Z,99393.66
2023-03-13T04:57:24.129Z,99394.41
2023-03-13T04:59:50.492Z,99387.13
2023-03-13T05:02:16.885Z,99381.06
2023-03-13T05:04:43.349Z,99372.63
2023-03-13T05:07:09.773Z,99379.75
2023-03-13T05:09:36.185Z,99374.09
2023-03-13T05:12:02.548Z,99370.84
2023-03-13T05:14:28.926Z,99368.88
2023-03-13T05:16:55.300Z,99361.38
2023-03-13T05:19:21.689Z,99356.00
2023-03-13T05:21:48.100Z,99355.25
2023-03-13T05:24:14.484Z,99338.38
2023-03-13T05:26:40.838Z,99342.69
2023-03-13T05:29:07.239Z,99332.44
2023-03-13T05:31:33.637Z,99330.22
2023-03-13T05:34:00.109Z,99324.13
2023-03-13T05:36:26.490Z,99323.69
2023-03-13T05:38:52.919Z,99316.59
2023-03-13T05:41:19.321Z,99311.22
2023-03-13T05:43:45.717Z,99307.63
2023-03-13T05:46:12.113Z,99311.31
2023-03-13T05:48:38.525Z,99323.81
2023-03-13T05:51:04.989Z,99307.28
2023-03-13T05:53:31.358Z,99296.34
2023-03-13T05:55:57.724Z,99299.75
2023-03-13T05:58:24.175Z,99300.63
2023-03-13T06:00:50.537Z,99289.81
2023-03-13T06:03:16.919Z,99285.88
2023-03-13T06:05:43.296Z,99275.88
2023-03-13T06:08:09.678Z,99273.22
2023-03-13T06:10:36.067Z,99261.81
2023-03-13T06:13:17.144Z,99260.94
2023-03-13T06:15:54.314Z,99263.78
2023-03-13T06:18:20.925Z,99251.81
2023-03-13T06:20:48.640Z,99246.38
2023-03-13T06:23:15.296Z,99243.16
2023-03-13T06:25:41.659Z,99246.66
2023-03-13T06:28:08.100Z,99238.16
2023-03-13T06:30:34.484Z,99244.00
2023-03-13T06:33:01.030Z,99240.63
2023-03-13T06:35:27.505Z,99241.72
2023-03-13T06:37:54.124Z,99236.38
2023-03-13T06:40:20.659Z,99234.91
2023-03-13T06:42:47.149Z,99226.81
2023-03-13T06:45:13.695Z,99235.50
2023-03-13T06:47:40.117Z,99233.16
2023-03-13T06:50:07.139Z,99227.53
2023-03-13T06:52:43.099Z,99232.22
2023-03-13T06:55:10.381Z,99216.28
2023-03-13T06:57:36.810Z,99216.00
2023-03-13T07:00:06.022Z,99229.97
2023-03-13T07:02:32.526Z,99224.63
2023-03-13T07:04:58.954Z,99202.50
2023-03-13T07:07:31.872Z,99212.00
2023-03-13T07:09:58.955Z,99205.75
2023-03-13T07:12:25.375Z,99221.06
2023-03-13T07:14:51.788Z,99211.63
2023-03-13T07:17:18.232Z,99210.03
2023-03-13T07:19:44.707Z,99208.31
2023-03-13T07:22:11.103Z,99209.94
2023-03-13T07:24:37.504Z,99216.34
2023-03-13T07:27:07.664Z,99216.00
2023-03-13T07:29:34.535Z,99204.47
2023-03-13T07:32:01.023Z,99211.56
2023-03-13T07:34:27.486Z,99216.38
2023-03-13T07:36:53.841Z,99215.75
2023-03-13T07:39:20.235Z,99214.91
2023-03-13T07:41:46.622Z,99213.00
2023-03-13T07:44:13.093Z,99212.56
2023-03-13T07:46:39.505Z,99221.19
2023-03-13T07:49:06.797Z,99196.84
2023-03-13T07:51:42.912Z,99214.91
2023-03-13T07:54:10.562Z,99206.88
2023-03-13T07:56:37.034Z,99220.66
2023-03-13T07:59:03.444Z,99217.72
2023-03-13T08:01:31.111Z,99208.97
2023-03-13T08:04:01.196Z,99217.22
2023-03-13T08:06:32.750Z,99224.84
2023-03-13T08:09:00.246Z,99193.72
2023-03-13T08:11:28.441Z,99198.66
2023-03-13T08:13:56.134Z,99198.31
2023-03-13T08:16:24.761Z,99195.94
2023-03-13T08:18:54.136Z,99201.81
2023-03-13T08:21:23.371Z,99193.75
2023-03-13T08:23:53.185Z,99190.56
2023-03-13T08:26:21.267Z,99182.06
2023-03-13T08:28:52.493Z,99180.34
2023-03-13T08:31:22.278Z,99173.59
2023-03-13T08:33:49.060Z,99171.91
2023-03-13T08:36:18.407Z,99181.72
2023-03-13T08:38:46.520Z,99174.97
2023-03-13T08:41:18.726Z,99172.06
2023-03-13T08:43:45.723Z,99174.16
2023-03-13T08:46:12.852Z,99173.38
2023-03-13T08:48:39.389Z,99177.28
2023-03-13T08:51:08.072Z,99177.00
2023-03-13T08:53:35.563Z,99175.03
2023-03-13T08:56:02.207Z,99183.06
2023-03-13T08:58:28.830Z,99189.00
2023-03-13T09:00:55.554Z,99189.56
2023-03-13T09:03:22.113Z,99192.75
2023-03-13T09:05:55.961Z,99192.59
2023-03-13T09:08:22.991Z,99193.97
2023-03-13T09:10:58.048Z,99190.72
2023-03-13T09:13:25.769Z,99181.81
2023-03-13T09:16:03.852Z,99194.16
2023-03-13T09:18:30.558Z,99189.34
2023-03-13T09:20:57.060Z,99189.34
2023-03-13T09:23:24.187Z,99194.72
2023-03-13T09:25:55.996Z,99198.72
2023-03-13T09:28:23.437Z,99192.59
2023-03-13T09:30:50.150Z,99188.63
2023-03-13T09:33:17.904Z,99190.38
2023-03-13T09:35:47.183Z,99194.97
2023-03-13T09:38:13.627Z,99188.28
2023-03-13T09:40:56.638Z,99182.59
2023-03-13T09:43:36.008Z,99194.91
2023-03-13T09:46:05.198Z,99188.78
2023-03-13T09:48:34.207Z,99194.00
2023-03-13T09:51:05.763Z,99201.22
2023-03-13T09:53:54.881Z,99200.50
2023-03-13T09:56:25.013Z,99199.34
2023-03-13T09:58:58.812Z,99196.13
2023-03-13T10:01:29.509Z,99189.03
2023-03-13T10:04:04.773Z,99192.47
2023-03-13T10:06:35.470Z,99181.63
2023-03-13T10:09:01.984Z,99181.31
2023-03-13T10:11:41.555Z,99185.06
2023-03-13T10:14:45.124Z,99173.72
2023-03-13T10:17:22.400Z,99167.00
2023-03-13T10:19:55.908Z,99171.97
2023-03-13T10:22:26.573Z,99166.38
2023-03-13T10:24:59.813Z,99165.72
2023-03-13T10:27:27.134Z,99159.03
2023-03-13T10:29:53.524Z,99158.78
2023-03-13T10:32:21.234Z,99155.06
2023-03-13T10:34:58.435Z,99178.78
2023-03-13T10:37:33.709Z,99159.72
2023-03-13T10:40:24.967Z,99169.75
2023-03-13T10:42:53.203Z,99166.75
2023-03-13T10:45:25.005Z,99158.78
2023-03-13T10:47:56.097Z,99174.78
2023-03-13T10:50:26.064Z,99176.75
2023-03-13T10:52:53.189Z,99179.41
2023-03-13T10:55:22.022Z,99175.25
2023-03-13T10:58:02.823Z,99177.16
2023-03-13T11:00:31.110Z,99159.81
2023-03-13T11:02:57.750Z,99166.84
2023-03-13T11:05:31.674Z,99161.47
2023-03-13T11:07:58.110Z,99156.81
2023-03-13T11:10:26.286Z,99151.56
2023-03-13T11:12:54.555Z,99150.22
2023-03-13T11:15:31.289Z,99140.06
2023-03-13T11:18:03.221Z,99135.63
2023-03-13T11:20:37.315Z,99135.50
2023-03-13T11:23:27.990Z,99124.38
2023-03-13T11:26:05.892Z,99131.09
2023-03-13T11:28:56.030Z,99131.50
2023-03-13T11:31:29.981Z,99128.53
2023-03-13T11:34:05.540Z,99128.56
2023-03-13T11:36:53.464Z,99120.06
2023-03-13T11:39:41.452Z,99143.78
2023-03-13T11:42:07.791Z,99118.06
2023-03-13T11:44:58.517Z,99134.59
2023-03-13T11:47:53.311Z,99145.09
2023-03-13T11:50:36.502Z,99129.19
2023-03-13T11:53:18.711Z,99118.50
2023-03-13T11:55:57.202Z,99128.72
2023-03-13T11:58:40.844Z,99126.72
2023-03-13T12:01:18.647Z,99125.13
2023-03-13T12:04:05.563Z,99109.84
2023-03-13T12:06:42.268Z,99109.25
2023-03-13T12:09:37.536Z,99092.16
2023-03-13T12:12:25.399Z,99095.47
2023-03-13T12:15:21.137Z,99101.81
2023-03-13T12:17:51.928Z,99095.97
2023-03-13T12:20:43.612Z,99104.81
2023-03-13T12:23:23.607Z,99101.38
2023-03-13T12:25:55.812Z,99087.63
2023-03-13T12:28:28.311Z,99096.31
2023-03-13T12:31:19.276Z,99076.75
2023-03-13T12:33:52.453Z,99064.19
2023-03-13T12:36:31.234Z,99075.50
2023-03-13T12:39:23.771Z,99064.88
2023-03-13T12:42:01.414Z,99074.75
2023-03-13T12:44:27.902Z,99063.94
2023-03-13T12:47:09.830Z,99060.22
2023-03-13T12:50:10.562Z,99042.13
2023-03-13T12:52:58.635Z,99033.34
2023-03-13T12:55:45.059Z,99054.81
2023-03-13T12:58:21.108Z,99029.28
2023-03-13T13:00:48.690Z,99029.16
2023-03-13T13:03:22.601Z,99024.84
2023-03-13T13:06:04.372Z,99018.22
2023-03-13T13:09:01.501Z,99024.34
2023-03-13T13:11:34.606Z,99022.75
2023-03-13T13:14:19.146Z,99004.91
2023-03-13T13:16:50.377Z,99019.44
2023-03-13T13:19:23.057Z,98992.59
2023-03-13T13:22:27.136Z,99013.22
2023-03-13T13:24:55.996Z,99011.13
2023-03-13T13:27:31.521Z,99001.13
2023-03-13T13:29:59.614Z,98993.69
2023-03-13T13:32:40.354Z,98982.81
2023-03-13T13:35:19.595Z,98993.03
2023-03-13T13:37:48.987Z,98982.97
2023-03-13T13:40:16.025Z,98987.59
2023-03-13T13:42:59.841Z,98963.38
2023-03-13T13:45:29.150Z,98970.69
2023-03-13T13:48:33.817Z,98970.06
2023-03-13T13:51:10.983Z,98969.66
2023-03-13T13:53:46.838Z,98959.38
2023-03-13T13:56:28.655Z,98978.81
2023-03-13T13:59:24.673Z,98954.72
2023-03-13T14:02:13.726Z,98945.75
2023-03-13T14:04:52.494Z,98959.56
2023-03-13T14:07:37.048Z,98950.94
2023-03-13T14:10:19.348Z,98939.81
2023-03-13T14:12:57.385Z,98933.75
2023-03-13T14:15:29.777Z,98929.19
2023-03-13T14:18:01.996Z,98921.06
2023-03-13T14:20:35.566Z,98926.19
2023-03-13T14:23:04.653Z,98919.13
2023-03-13T14:26:09.136Z,98920.28
2023-03-13T14:28:35.522Z,98919.03
2023-03-13T14:31:01.979Z,98922.03
2023-03-13T14:33:28.661Z,98911.81
2023-03-13T14:35:55.553Z,98915.19
2023-03-13T14:38:24.160Z,98919.97
2023-03-13T14:40:51.595Z,98913.44
2023-03-13T14:43:41.218Z,98915.00
2023-03-13T14:46:16.617Z,98912.63
2023-03-13T14:48:43.145Z,98917.28
2023-03-13T14:51:15.582Z,98897.25
2023-03-13T14:53:54.583Z,98907.69
2023-03-13T14:56:21.299Z,98887.09
2023-03-13T14:58:48.761Z,98877.72
2023-03-13T15:01:24.827Z,98888.03
2023-03-13T15:03:52.543Z,98891.19
2023-03-13T15:06:20.753Z,98905.91
2023-03-13T15:09:10.117Z,98897.38
2023-03-13T15:11:41.799Z,98893.13
2023-03-13T15:14:32.092Z,98888.25
2023-03-13T15:16:58.498Z,98882.66
2023-03-13T15:19:24.849Z,98886.91
2023-03-13T15:21:52.119Z,98870.38
2023-03-13T15:24:18.689Z,98880.38
2023-03-13T15:26:47.221Z,98882.34
2023-03-13T15:29:18.191Z,98871.22
2023-03-13T15:31:44.774Z,98849.38
2023-03-13T15:34:14.233Z,98883.06
2023-03-13T15:36:41.708Z,98859.38
2023-03-13T15:39:22.421Z,98867.16
2023-03-13T15:41:48.883Z,98856.03
2023-03-13T15:44:15.302Z,98856.25
2023-03-13T15:46:41.744Z,98841.25
2023-03-13T15:49:12.866Z,98837.75
2023-03-13T15:51:39.561Z,98835.44
2023-03-13T15:54:06.006Z,98830.72
2023-03-13T15:56:36.573Z,98825.06
2023-03-13T15:59:10.065Z,98818.84
2023-03-13T16:01:36.730Z,98822.25
2023-03-13T16:04:03.936Z,98799.53
2023-03-13T16:06:33.343Z,98811.78
2023-03-13T16:09:01.366Z,98811.34
2023-03-13T16:11:28.767Z,98811.88
2023-03-13T16:13:56.003Z,98814.84
2023-03-13T16:16:25.403Z,98810.88
2023-03-13T16:18:53.147Z,98815.44
2023-03-13T16:21:22.965Z,98809.84
2023-03-13T16:23:49.480Z,98805.31
2023-03-13T16:26:23.802Z,98809.31
2023-03-13T16:28:50.844Z,98797.28
2023-03-13T16:31:23.051Z,98796.91
2023-03-13T16:33:53.294Z,98789.03
2023-03-13T16:36:22.876Z,98798.38
2023-03-13T16:38:49.595Z,98788.03
2023-03-13T16:41:18.075Z,98802.16
2023-03-13T16:43:45.270Z,98804.66
2023-03-13T16:46:20.377Z,98796.56
2023-03-13T16:48:48.215Z,98809.31
2023-03-13T16:51:25.701Z,98797.59
2023-03-13T16:53:53.706Z,98797.50
2023-03-13T16:56:22.375Z,98799.28
2023-03-13T16:58:49.109Z,98785.91
2023-03-13T17:01:16.701Z,98786.41
2023-03-13T17:03:43.816Z,98780.78
2023-03-13T17:06:16.160Z,98780.44
2023-03-13T17:08:43.953Z,98790.94
2023-03-13T17:11:17.990Z,98795.97
2023-03-13T17:13:45.699Z,98802.59
2023-03-13T17:16:15.325Z,98803.41
2023-03-13T17:18:42.544Z,98806.44
2023-03-13T17:21:17.756Z,98806.44
2023-03-13T17:23:44.787Z,98805.16
2023-03-13T17:26:15.693Z,98800.16
2023-03-13T17:28:43.245Z,98799.19
2023-03-13T17:31:10.937Z,98801.94
2023-03-13T17:33:37.947Z,98798.06
2023-03-13T17:36:15.081Z,98784.25
2023-03-13T17:38:41.618Z,98783.56
2023-03-13T17:41:11.658Z,98782.59
2023-03-13T17:43:38.748Z,98784.59
2023-03-13T17:46:20.424Z,98785.50
2023-03-13T17:48:48.733Z,98769.84
2023-03-13T17:51:18.529Z,98786.75
2023-03-13T17:53:45.146Z,98786.13
2023-03-13T17:56:20.530Z,98786.84
2023-03-13T17:58:48.665Z,98794.50
2023-03-13T18:01:15.376Z,98793.25
2023-03-13T18:03:42.250Z,98788.63
2023-03-13T18:06:18.874Z,98786.25
2023-03-13T18:08:45.557Z,98799.38
2023-03-13T18:11:12.197Z,98795.50
2023-03-13T18:13:39.257Z,98799.38
2023-03-13T18:16:42.835Z,98798.94
2023-03-13T18:19:20.489Z,98802.84
2023-03-13T18:21:48.975Z,98802.34
2023-03-13T18:24:16.986Z,98813.31
2023-03-13T18:26:45.198Z,98826.72
2023-03-13T18:29:17.830Z,98829.44
2023-03-13T18:31:44.339Z,98836.75
2023-03-13T18:34:11.613Z,98833.81
2023-03-13T18:36:38.758Z,98830.16
2023-03-13T18:39:08.665Z,98833.06
2023-03-13T18:41:35.062Z,98833.06
2023-03-13T18:44:01.872Z,98837.94
2023-03-13T18:46:31.369Z,98837.94
2023-03-13T18:48:58.076Z,98843.78
2023-03-13T18:51:25.745Z,98847.22
2023-03-13T18:53:53.367Z,98833.31
2023-03-13T18:56:28.733Z,98832.09
2023-03-13T18:58:55.834Z,98831.63
2023-03-13T19:01:24.396Z,98823.31
2023-03-13T19:03:51.182Z,98818.44
2023-03-13T19:06:35.025Z,98819.91
2023-03-13T19:09:41.777Z,98823.28
2023-03-13T19:12:03.752Z,98822.31
2023-03-13T19:14:30.281Z,98818.91
2023-03-13T19:16:57.689Z,98822.06
2023-03-13T19:19:25.182Z,98817.38
2023-03-13T19:21:56.738Z,98812.44
2023-03-13T19:24:26.487Z,98811.47
2023-03-13T19:26:58.473Z,98808.72
2023-03-13T19:29:38.001Z,98801.16
2023-03-13T19:32:07.110Z,98801.59
2023-03-13T19:34:33.646Z,98797.91
2023-03-13T19:37:00.143Z,98794.91
2023-03-13T19:39:26.728Z,98789.09
2023-03-13T19:41:53.705Z,98782.00
2023-03-13T19:44:20.753Z,98792.50
2023-03-13T19:46:47.793Z,98775.56
2023-03-13T19:49:16.376Z,98760.44
2023-03-13T19:51:43.049Z,98767.19
2023-03-13T19:54:10.736Z,98764.44
2023-03-13T19:56:39.324Z,98782.22
2023-03-13T19:59:20.266Z,98798.97
2023-03-13T20:01:47.245Z,98791.16
2023-03-13T20:04:13.670Z,98783.25
2023-03-13T20:06:41.306Z,98768.75
2023-03-13T20:09:13.370Z,98765.66
2023-03-13T20:11:39.751Z,98779.19
2023-03-13T20:14:06.296Z,98787.25
2023-03-13T20:16:34.930Z,98789.09
2023-03-13T20:19:01.881Z,98794.34
2023-03-13T20:21:33.797Z,98792.63
2023-03-13T20:24:00.651Z,98798.44
2023-03-13T20:26:28.234Z,98792.97
2023-03-13T20:28:55.369Z,98795.63
2023-03-13T20:31:24.748Z,98787.91
2023-03-13T20:33:51.479Z,98776.81
2023-03-13T20:36:19.925Z,98775.59
2023-03-13T20:38:47.037Z,98763.53
2023-03-13T20:41:13.498Z,98760.28
2023-03-13T20:43:40.046Z,98758.59
2023-03-13T20:46:09.371Z,98759.41
2023-03-13T20:48:38.970Z,98746.78
2023-03-13T20:51:06.383Z,98738.56
2023-03-13T20:53:35.282Z,98727.69
2023-03-13T20:56:02.010Z,98732.28
2023-03-13T20:58:28.462Z,98727.59
2023-03-13T21:00:58.287Z,98737.56
2023-03-13T21:03:24.717Z,98743.56
2023-03-13T21:05:51.423Z,98742.63
2023-03-13T21:08:18.168Z,98750.50
2023-03-13T21:10:44.838Z,98761.25
2023-03-13T21:13:11.368Z,98766.66
2023-03-13T21:15:38.208Z,98767.34
2023-03-13T21:18:04.837Z,98773.53
2023-03-13T21:20:31.287Z,98774.94
2023-03-13T21:22:57.853Z,98781.06
2023-03-13T21:25:24.515Z,98787.34
2023-03-13T21:27:50.914Z,98789.63
2023-03-13T21:30:19.386Z,98784.81
2023-03-13T21:32:46.933Z,98789.63
2023-03-13T21:35:14.124Z,98798.03
2023-03-13T21:37:40.912Z,98796.56
2023-03-13T21:40:08.842Z,98790.28
2023-03-13T21:42:36.118Z,98780.28
2023-03-13T21:45:04.082Z,98768.78
2023-03-13T21:47:31.653Z,98769.06
2023-03-13T21:50:00.486Z,98768.03
2023-03-13T21:52:27.923Z,98765.00
2023-03-13T21:54:54.322Z,98756.56
2023-03-13T21:57:20.788Z,98761.22
2023-03-13T21:59:47.288Z,98752.50
2023-03-13T22:02:14.025Z,98753.44
2023-03-13T22:04:40.576Z,98749.13
2023-03-13T22:07:06.951Z,98746.50
2023-03-13T22:09:33.408Z,98747.25
2023-03-13T22:11:59.838Z,98755.44
2023-03-13T22:14:27.964Z,98758.53
2023-03-13T22:16:54.530Z,98751.94
2023-03-13T22:19:20.922Z,98767.56
2023-03-13T22:21:47.374Z,98782.94
2023-03-13T22:24:13.813Z,98759.94
2023-03-13T22:26:40.250Z,98746.97
2023-03-13T22:29:06.664Z,98755.66
2023-03-13T22:31:33.054Z,98772.94
2023-03-13T22:33:59.468Z,98778.13
2023-03-13T22:36:25.940Z,98766.59
2023-03-13T22:38:52.592Z,98769.84
2023-03-13T22:41:19.441Z,98754.00
2023-03-13T22:43:45.911Z,98734.13
2023-03-13T22:46:12.602Z,98730.47
2023-03-13T22:48:39.692Z,98728.94
2023-03-13T22:51:11.628Z,98727.72
2023-03-13T22:53:39.459Z,98732.22
2023-03-13T22:56:06.649Z,98720.47
2023-03-13T22:58:33.753Z,98723.28
2023-03-13T23:01:00.220Z,98723.00
2023-03-13T23:03:26.667Z,98707.59
2023-03-13T23:05:53.037Z,98711.53
2023-03-13T23:08:19.472Z,98709.34
2023-03-13T23:10:47.548Z,98709.25
2023-03-13T23:13:16.213Z,98713.41
2023-03-13T23:15:58.218Z,98706.47
2023-03-13T23:18:26.424Z,98701.91
2023-03-13T23:20:53.128Z,98689.63
2023-03-13T23:23:19.589Z,98679.84
2023-03-13T23:25:46.253Z,98681.50
2023-03-13T23:28:12.821Z,98669.03
2023-03-13T23:30:39.220Z,98675.88
2023-03-13T23:33:06.021Z,98672.25
2023-03-13T23:35:32.524Z,98688.31
2023-03-13T23:37:58.945Z,98685.41
2023-03-13T23:40:25.391Z,98694.16
2023-03-13T23:42:51.821Z,98704.88
2023-03-13T23:45:19.121Z,98689.72
2023-03-13T23:47:45.939Z,98693.75
2023-03-13T23:50:13.588Z,98692.00
2023-03-13T23:52:40.336Z,98692.47
2023-03-13T23:55:07.394Z,98692.09
2023-03-13T23:57:33.979Z,98687.34
